Time;durP1;ratioP1;P1;durP2;ratioP2;P2;SDS_P1;SDS_P2;PMS_P1;PMS_P2;Temp;Humidity;BMP_temperature;BMP_pressure;BME280_temperature;BME280_humidity;BME280_pressure;Samples;Min_cycle;Max_cycle;Signal;HPM_P1;HPM_P2
2022/07/28 00:00:07;;;;;;;406.03;360.27;;;;;;;28.30;52.36;99187.03;2498303;27;20491;-77
2022/07/28 00:00:17;;;;;;;422.13;379.80;;;;;;;28.28;52.27;99181.00;352730;28;899;-78
2022/07/28 00:00:28;;;;;;;418.13;375.67;;;;;;;28.29;52.80;99182.66;348957;28;1445;-78
2022/07/28 00:00:38;;;;;;;422.57;379.93;;;;;;;28.28;52.52;99179.13;349826;28;1441;-78
2022/07/28 00:00:49;;;;;;;433.25;390.23;;;;;;;28.27;52.69;99184.69;348824;28;1369;-78
2022/07/28 00:00:59;;;;;;;441.20;398.00;;;;;;;28.28;52.68;99186.38;348939;28;1266;-77
2022/07/28 00:01:10;;;;;;;439.50;396.45;;;;;;;28.29;52.61;99185.34;347401;28;1262;-78
2022/07/28 00:01:20;;;;;;;438.13;395.17;;;;;;;28.29;52.63;99183.50;350573;28;1275;-77
2022/07/28 00:01:30;;;;;;;426.87;384.30;;;;;;;28.30;52.43;99184.34;350125;28;1567;-77
2022/07/28 00:01:41;;;;;;;419.08;376.73;;;;;;;28.30;52.76;99187.03;349167;28;907;-78
2022/07/28 00:01:51;;;;;;;416.63;374.43;;;;;;;28.28;52.61;99184.53;349488;28;1300;-78
2022/07/28 00:02:03;;;;;;;426.35;383.70;;;;;;;28.27;52.69;99184.69;351669;28;892;-78
2022/07/28 00:02:14;;;;;;;437.23;394.45;;;;;;;28.24;53.38;99185.91;349484;28;1287;-78
2022/07/28 00:02:24;;;;;;;443.50;400.47;;;;;;;28.23;52.88;99189.63;347465;28;1252;-78
2022/07/28 00:02:35;;;;;;;436.83;394.05;;;;;;;28.22;53.38;99187.94;346129;28;1227;-78
2022/07/28 00:02:45;;;;;;;422.37;379.70;;;;;;;28.23;53.02;99189.63;346176;28;1217;-78
2022/07/28 00:02:56;;;;;;;412.60;370.13;;;;;;;28.23;53.17;99180.72;346119;28;1425;-78
2022/07/28 00:03:06;;;;;;;420.90;378.10;;;;;;;28.21;53.66;99188.09;345982;28;1355;-78
2022/07/28 00:03:16;;;;;;;433.27;390.23;;;;;;;28.17;53.93;99188.47;345015;28;1196;-79
2022/07/28 00:03:27;;;;;;;440.87;397.87;;;;;;;28.14;53.91;99186.19;346366;28;1030;-78
2022/07/28 00:03:38;;;;;;;441.88;399.08;;;;;;;28.13;53.94;99184.50;346262;28;931;-78
2022/07/28 00:03:48;;;;;;;434.63;391.93;;;;;;;28.09;53.91;99188.59;349870;28;1196;-78
2022/07/28 00:03:59;;;;;;;419.30;377.00;;;;;;;28.11;54.47;99189.25;350156;28;1139;-78
2022/07/28 00:04:10;;;;;;;415.67;373.38;;;;;;;28.12;54.41;99182.00;348552;28;1509;-77
2022/07/28 00:04:20;;;;;;;434.27;391.23;;;;;;;28.14;54.08;99194.25;349020;28;1195;-77
2022/07/28 00:04:31;;;;;;;446.55;403.17;;;;;;;28.13;54.45;99192.59;345064;28;1383;-78
2022/07/28 00:04:42;;;;;;;449.58;406.05;;;;;;;28.14;54.35;99183.50;343431;28;1310;-77
2022/07/28 00:04:52;;;;;;;433.50;390.53;;;;;;;28.15;54.37;99181.63;346028;28;1206;-77
2022/07/28 00:05:03;;;;;;;423.67;380.92;;;;;;;28.14;54.29;99188.03;343519;28;939;-77
2022/07/28 00:05:14;;;;;;;410.95;368.70;;;;;;;28.14;54.66;99185.34;344660;28;1220;-77
2022/07/28 00:05:24;;;;;;;423.47;380.87;;;;;;;28.13;54.47;99181.81;349057;28;1204;-79
2022/07/28 00:05:35;;;;;;;422.92;380.60;;;;;;;28.13;54.62;99184.50;344781;28;975;-79
2022/07/28 00:05:46;;;;;;;433.83;391.13;;;;;;;28.13;54.19;99179.13;344863;28;1368;-78
2022/07/28 00:05:56;;;;;;;440.48;397.40;;;;;;;28.11;54.02;99183.88;343344;28;1240;-79
2022/07/28 00:06:06;;;;;;;447.33;403.83;;;;;;;28.12;54.33;99190.91;342201;28;1348;-77
2022/07/28 00:06:17;;;;;;;442.50;399.17;;;;;;;28.12;54.36;99185.53;343011;28;933;-77
2022/07/28 00:06:27;;;;;;;439.03;395.83;;;;;;;28.11;54.50;99185.72;342425;28;1407;-77
2022/07/28 00:06:38;;;;;;;433.30;390.35;;;;;;;28.11;54.18;99181.16;339461;29;1221;-79
2022/07/28 00:06:48;;;;;;;430.90;387.80;;;;;;;28.12;54.47;99187.38;343880;28;1219;-79
2022/07/28 00:06:58;;;;;;;428.88;385.85;;;;;;;28.14;54.52;99188.03;342547;28;1340;-78
2022/07/28 00:07:09;;;;;;;441.43;398.07;;;;;;;28.13;54.52;99187.19;343735;28;1318;-78
2022/07/28 00:07:19;;;;;;;451.42;407.98;;;;;;;28.12;54.47;99188.22;342771;28;1222;-78
2022/07/28 00:07:30;;;;;;;459.23;415.57;;;;;;;28.12;54.15;99182.00;343346;28;1332;-78
2022/07/28 00:07:40;;;;;;;452.55;409.10;;;;;;;28.13;54.21;99184.50;342135;28;1219;-78
2022/07/28 00:07:50;;;;;;;447.37;404.03;;;;;;;28.12;53.60;99180.16;343243;28;1289;-78
2022/07/28 00:08:01;;;;;;;442.60;399.33;;;;;;;28.12;53.56;99182.84;342036;28;1392;-77
2022/07/28 00:08:11;;;;;;;434.70;391.48;;;;;;;28.12;53.44;99184.69;339794;28;1263;-77
2022/07/28 00:08:22;;;;;;;421.30;378.38;;;;;;;28.11;53.57;99191.94;342566;28;1007;-78
2022/07/28 00:08:33;;;;;;;423.30;380.30;;;;;;;28.11;53.60;99181.16;341627;28;1282;-78
2022/07/28 00:08:43;;;;;;;433.20;390.30;;;;;;;28.05;53.17;99189.97;340689;28;1552;-78
2022/07/28 00:08:54;;;;;;;447.83;404.40;;;;;;;27.98;53.10;99186.34;339408;29;1285;-77
2022/07/28 00:09:04;;;;;;;447.42;403.88;;;;;;;27.94;53.47;99179.66;341753;28;1437;-77
2022/07/28 00:09:15;;;;;;;448.60;404.93;;;;;;;27.91;53.48;99182.72;340879;28;1227;-77
2022/07/28 00:09:25;;;;;;;448.73;405.10;;;;;;;27.90;53.14;99191.81;340889;28;1374;-77
2022/07/28 00:09:36;;;;;;;453.97;410.33;;;;;;;27.88;53.30;99188.47;345116;28;1218;-77
2022/07/28 00:09:46;;;;;;;453.02;409.55;;;;;;;27.87;53.00;99189.50;343260;28;1263;-77
2022/07/28 00:09:56;;;;;;;454.30;411.00;;;;;;;27.89;53.36;99187.47;340991;28;1570;-77
2022/07/28 00:10:07;;;;;;;456.10;412.77;;;;;;;27.88;52.88;99185.78;342356;28;877;-77
2022/07/28 00:10:18;;;;;;;459.05;415.45;;;;;;;27.84;52.67;99184.47;342991;28;1473;-77
2022/07/28 00:10:28;;;;;;;460.20;416.42;;;;;;;27.85;53.06;99186.16;341067;28;1790;-77
2022/07/28 00:10:39;;;;;;;470.30;426.03;;;;;;;27.86;52.84;99192.38;336076;29;1204;-76
2022/07/28 00:10:49;;;;;;;473.65;429.27;;;;;;;27.87;52.67;99189.50;338906;29;1627;-76
2022/07/28 00:11:00;;;;;;;477.23;432.73;;;;;;;27.86;52.35;99181.59;334458;29;2179;-76
2022/07/28 00:11:10;;;;;;;471.73;427.58;;;;;;;27.87;52.54;99186.81;329579;30;1340;-76
2022/07/28 00:11:21;;;;;;;466.43;422.53;;;;;;;27.88;52.45;99188.47;337168;29;1447;-76
2022/07/28 00:11:32;;;;;;;464.17;420.50;;;;;;;27.89;52.19;99197.38;336858;29;1098;-77
2022/07/28 00:11:42;;;;;;;462.95;419.27;;;;;;;27.89;52.00;99182.06;335592;29;1575;-76
2022/07/28 00:11:52;;;;;;;464.73;421.03;;;;;;;27.90;52.14;99189.13;333597;29;1284;-77
2022/07/28 00:12:03;;;;;;;463.08;419.42;;;;;;;27.92;52.19;99192.47;335513;29;1673;-77
2022/07/28 00:12:15;;;;;;;468.07;424.27;;;;;;;27.93;51.90;99186.06;335871;29;1943;-77
2022/07/28 00:12:25;;;;;;;469.33;425.38;;;;;;;27.96;51.77;99188.41;334709;29;1355;-77
2022/07/28 00:12:36;;;;;;;468.88;424.83;;;;;;;27.93;52.01;99194.13;326426;30;899;-77
2022/07/28 00:12:47;;;;;;;467.97;423.60;;;;;;;27.93;51.58;99193.31;327746;30;2318;-77
2022/07/28 00:12:58;;;;;;;463.60;419.30;;;;;;;27.93;51.82;99191.44;330058;29;2469;-76
2022/07/28 00:13:09;;;;;;;464.40;420.00;;;;;;;27.93;51.41;99191.44;331136;29;1332;-75
2022/07/28 00:13:19;;;;;;;471.10;426.10;;;;;;;27.97;51.81;99195.44;326228;29;2528;-76
2022/07/28 00:13:29;;;;;;;478.93;433.37;;;;;;;27.95;51.65;99186.72;324319;30;1615;-77
2022/07/28 00:13:40;;;;;;;478.75;433.48;;;;;;;27.97;51.46;99195.44;325285;30;1291;-77
2022/07/28 00:13:50;;;;;;;472.67;427.93;;;;;;;27.98;51.67;99194.44;324361;30;1493;-77
2022/07/28 00:14:01;;;;;;;468.73;424.38;;;;;;;27.97;51.28;99184.69;323866;30;1634;-77
2022/07/28 00:14:11;;;;;;;468.60;424.07;;;;;;;27.96;51.36;99185.69;323362;30;2322;-77
2022/07/28 00:14:22;;;;;;;462.40;418.20;;;;;;;27.99;51.21;99195.25;323517;30;1282;-77
2022/07/28 00:14:33;;;;;;;465.05;420.77;;;;;;;27.99;51.23;99197.97;318787;30;2748;-77
2022/07/28 00:14:45;;;;;;;460.37;416.10;;;;;;;27.99;50.99;99189.88;318927;30;2573;-77
2022/07/28 00:14:55;;;;;;;460.20;416.10;;;;;;;27.99;51.08;99190.72;320573;30;1489;-77
2022/07/28 00:15:06;;;;;;;457.40;413.45;;;;;;;27.99;51.22;99189.88;316047;30;2790;-77
2022/07/28 00:15:16;;;;;;;457.60;413.60;;;;;;;27.98;51.47;99193.59;314543;31;3056;-77
2022/07/28 00:15:27;;;;;;;457.67;413.50;;;;;;;27.99;51.46;99193.41;314901;31;2832;-77
2022/07/28 00:15:37;;;;;;;459.77;415.53;;;;;;;28.01;50.94;99191.38;313326;31;1215;-77
2022/07/28 00:15:48;;;;;;;459.40;415.38;;;;;;;28.01;51.08;99186.00;315861;31;2189;-77
2022/07/28 00:15:58;;;;;;;456.10;412.30;;;;;;;28.00;50.89;99192.38;316873;31;2026;-77
2022/07/28 00:16:08;;;;;;;456.07;412.47;;;;;;;27.99;51.07;99196.09;316536;31;815;-77
2022/07/28 00:16:19;;;;;;;454.27;410.88;;;;;;;28.00;51.21;99195.09;313152;31;2635;-77
2022/07/28 00:16:29;;;;;;;452.33;408.97;;;;;;;27.99;50.87;99195.25;310945;31;3648;-77
2022/07/28 00:16:40;;;;;;;454.80;411.23;;;;;;;27.98;51.23;99193.59;308339;31;1230;-77
2022/07/28 00:16:50;;;;;;;461.33;417.47;;;;;;;27.96;51.45;99193.78;309250;31;4049;-77
2022/07/28 00:17:01;;;;;;;464.05;419.95;;;;;;;27.97;51.01;99195.44;307484;31;3960;-77
2022/07/28 00:17:11;;;;;;;463.17;419.13;;;;;;;27.98;51.47;99190.91;304154;32;4242;-77
2022/07/28 00:17:22;;;;;;;458.88;414.90;;;;;;;27.99;51.45;99188.03;302040;32;1287;-77
2022/07/28 00:17:32;;;;;;;462.17;418.27;;;;;;;27.99;51.58;99196.09;303792;32;4136;-77
2022/07/28 00:17:42;;;;;;;461.80;417.95;;;;;;;27.99;51.25;99192.56;305033;32;4184;-77
2022/07/28 00:17:53;;;;;;;463.93;420.07;;;;;;;27.98;51.09;99197.13;306216;32;1410;-77
2022/07/28 00:18:03;;;;;;;457.33;413.53;;;;;;;27.99;51.22;99193.41;302106;32;3427;-78
2022/07/28 00:18:14;;;;;;;449.58;406.35;;;;;;;27.99;51.09;99193.41;301881;32;3132;-78
2022/07/28 00:18:24;;;;;;;452.23;409.13;;;;;;;28.02;51.25;99193.03;303389;32;1466;-78
2022/07/28 00:18:34;;;;;;;455.92;412.65;;;;;;;28.01;50.68;99191.38;301564;32;4265;-78
2022/07/28 00:18:45;;;;;;;461.80;417.90;;;;;;;28.00;50.48;99184.31;298863;32;5515;-79
2022/07/28 00:18:55;;;;;;;455.23;411.48;;;;;;;28.01;50.58;99186.00;298802;33;1928;-79
2022/07/28 00:19:06;;;;;;;456.43;412.90;;;;;;;28.01;50.80;99191.38;290908;34;914;-78
2022/07/28 00:19:16;;;;;;;456.87;413.17;;;;;;;28.00;50.47;99183.47;287100;34;6438;-78
2022/07/28 00:19:27;;;;;;;461.47;417.30;;;;;;;28.01;50.42;99193.22;285627;33;6760;-78
2022/07/28 00:19:37;;;;;;;460.23;416.13;;;;;;;27.99;50.56;99190.72;288216;34;1217;-78
2022/07/28 00:19:48;;;;;;;460.05;416.17;;;;;;;28.00;50.71;99188.88;285048;34;5915;-78
2022/07/28 00:19:58;;;;;;;455.08;411.48;;;;;;;28.00;50.84;99192.38;285210;34;6406;-77
2022/07/28 00:20:09;;;;;;;455.00;411.47;;;;;;;28.02;50.74;99192.22;285865;34;1226;-78
2022/07/28 00:20:20;;;;;;;453.10;409.80;;;;;;;28.02;50.83;99193.03;279518;34;6699;-78
2022/07/28 00:22:21;;;;;;;393.93;348.87;;;;;;;27.96;50.60;99193.78;2496270;27;20498;-78
2022/07/28 00:22:31;;;;;;;444.13;401.27;;;;;;;27.96;51.09;99199.16;351468;28;1328;-78
2022/07/28 00:22:42;;;;;;;444.25;401.42;;;;;;;27.93;51.09;99196.84;350139;28;1203;-77
2022/07/28 00:22:53;;;;;;;445.15;402.17;;;;;;;27.89;50.76;99198.22;350822;28;1262;-78
2022/07/28 00:23:03;;;;;;;448.37;405.17;;;;;;;27.89;51.28;99198.22;350152;28;1329;-77
2022/07/28 00:23:14;;;;;;;445.40;402.33;;;;;;;27.89;51.39;99192.84;345974;28;1318;-77
2022/07/28 00:23:24;;;;;;;445.73;402.80;;;;;;;27.88;51.29;99191.16;348690;28;1248;-77
2022/07/28 00:23:34;;;;;;;446.47;403.43;;;;;;;27.87;51.41;99200.25;348793;28;1266;-77
2022/07/28 00:23:45;;;;;;;448.35;405.15;;;;;;;27.86;51.24;99195.91;349065;28;1026;-77
2022/07/28 00:23:55;;;;;;;439.63;396.63;;;;;;;27.85;51.30;99199.59;348641;28;1343;-77
2022/07/28 00:24:06;;;;;;;438.27;395.17;;;;;;;27.87;51.46;99202.94;347417;28;1378;-78
2022/07/28 00:24:16;;;;;;;441.60;398.47;;;;;;;27.87;51.72;99196.72;348766;28;1325;-77
2022/07/28 00:24:27;;;;;;;449.38;406.02;;;;;;;27.84;51.68;99197.94;348627;28;1220;-77
2022/07/28 00:24:37;;;;;;;452.83;409.27;;;;;;;27.81;51.76;99196.44;348427;28;1549;-77
2022/07/28 00:24:48;;;;;;;449.65;406.13;;;;;;;27.81;51.44;99198.28;347336;28;1403;-77
2022/07/28 00:24:58;;;;;;;449.70;406.23;;;;;;;27.78;51.34;99198.66;347986;28;1217;-77
2022/07/28 00:25:09;;;;;;;445.48;402.45;;;;;;;27.75;51.43;99197.16;347355;28;1375;-78
2022/07/28 00:25:19;;;;;;;447.60;404.53;;;;;;;27.77;51.56;99194.31;345687;28;1330;-78
2022/07/28 00:25:30;;;;;;;449.48;406.35;;;;;;;27.79;51.33;99197.63;348283;28;1224;-77
2022/07/28 00:25:40;;;;;;;452.33;409.17;;;;;;;27.79;51.54;99198.47;347793;28;1244;-77
2022/07/28 00:25:51;;;;;;;451.10;408.08;;;;;;;27.81;51.53;99200.97;347413;28;1210;-78
2022/07/28 00:26:01;;;;;;;452.93;409.77;;;;;;;27.81;51.46;99200.97;347462;28;1356;-77
2022/07/28 00:26:12;;;;;;;454.00;410.67;;;;;;;27.83;51.43;99196.25;347383;28;1123;-77
2022/07/28 00:26:22;;;;;;;453.27;409.70;;;;;;;27.82;51.53;99200.81;345995;28;1196;-77
2022/07/28 00:26:32;;;;;;;449.08;405.70;;;;;;;27.85;51.69;99201.47;348794;28;1337;-78
2022/07/28 00:26:43;;;;;;;448.53;405.10;;;;;;;27.87;51.58;99200.25;349192;28;1277;-78
2022/07/28 00:26:53;;;;;;;450.25;407.00;;;;;;;27.87;51.56;99202.94;347189;28;1361;-77
2022/07/28 00:27:05;;;;;;;455.93;412.43;;;;;;;27.89;51.21;99203.59;348646;28;1294;-78
2022/07/28 00:27:16;;;;;;;457.48;414.00;;;;;;;27.89;51.22;99194.69;347455;28;1556;-77
2022/07/28 00:27:26;;;;;;;456.77;413.35;;;;;;;27.88;51.28;99196.53;348637;28;1260;-77
2022/07/28 00:27:37;;;;;;;457.17;413.80;;;;;;;27.87;51.43;99197.56;347321;28;1183;-77
2022/07/28 00:27:47;;;;;;;466.67;422.93;;;;;;;27.88;51.61;99199.25;345944;28;1203;-77
2022/07/28 00:27:58;;;;;;;473.33;429.17;;;;;;;27.88;51.72;99196.53;345912;28;1304;-79
2022/07/28 00:28:08;;;;;;;477.00;432.57;;;;;;;27.91;51.42;99201.56;347887;28;1216;-79
2022/07/28 00:28:18;;;;;;;470.38;426.10;;;;;;;27.90;51.29;99199.88;347439;28;1092;-78
2022/07/28 00:28:29;;;;;;;467.17;423.20;;;;;;;27.89;51.49;99198.22;345243;28;1321;-78
2022/07/28 00:28:39;;;;;;;465.88;422.13;;;;;;;27.90;51.43;99205.28;345920;28;1340;-77
2022/07/28 00:28:50;;;;;;;469.60;425.67;;;;;;;27.88;51.81;99201.09;343286;28;1236;-77
2022/07/28 00:29:00;;;;;;;463.42;419.75;;;;;;;27.86;51.86;99203.97;343478;28;1331;-77
2022/07/28 00:29:11;;;;;;;465.33;421.50;;;;;;;27.81;52.19;99198.28;341887;28;1256;-77
2022/07/28 00:29:22;;;;;;;460.33;416.77;;;;;;;27.79;52.25;99203.84;339363;29;1315;-78
2022/07/28 00:29:34;;;;;;;460.83;417.20;;;;;;;27.78;52.17;99206.72;340363;29;980;-77
2022/07/28 00:29:44;;;;;;;458.00;414.63;;;;;;;27.75;52.40;99199.03;342694;28;948;-77
2022/07/28 00:29:55;;;;;;;461.20;417.90;;;;;;;27.77;51.90;99205.06;340466;29;1314;-77
2022/07/28 00:30:06;;;;;;;469.00;425.33;;;;;;;27.77;52.43;99207.75;339411;29;1361;-78
2022/07/28 00:30:17;;;;;;;474.63;430.65;;;;;;;27.74;52.03;99200.03;336099;29;1504;-78
2022/07/28 00:30:27;;;;;;;473.95;429.85;;;;;;;27.74;52.09;99205.41;338113;28;1515;-77
2022/07/28 00:30:38;;;;;;;471.70;427.57;;;;;;;27.75;52.41;99201.72;339367;29;1356;-76
2022/07/28 00:30:48;;;;;;;465.77;421.73;;;;;;;27.77;52.37;99205.06;337036;29;1249;-76
2022/07/28 00:30:59;;;;;;;468.80;424.53;;;;;;;27.75;52.16;99202.53;339502;28;1753;-76
2022/07/28 00:31:09;;;;;;;466.50;422.48;;;;;;;27.77;52.14;99210.44;339382;29;813;-77
2022/07/28 00:31:20;;;;;;;470.93;427.00;;;;;;;27.79;52.36;99209.22;330468;29;1221;-77
2022/07/28 00:31:30;;;;;;;466.73;423.17;;;;;;;27.77;51.98;99211.28;332816;29;1323;-77
2022/07/28 00:31:41;;;;;;;469.07;425.27;;;;;;;27.77;52.56;99210.44;334164;29;1208;-77
2022/07/28 00:31:51;;;;;;;463.67;420.05;;;;;;;27.75;52.55;99207.09;332049;29;748;-77
2022/07/28 00:32:03;;;;;;;458.90;415.27;;;;;;;27.75;52.60;99196.34;330648;29;1167;-76
2022/07/28 00:32:14;;;;;;;453.48;409.92;;;;;;;27.74;52.42;99206.25;328938;29;1513;-78
2022/07/28 00:32:24;;;;;;;455.73;411.98;;;;;;;27.75;52.60;99207.94;326698;30;1378;-78
2022/07/28 00:32:35;;;;;;;462.20;418.27;;;;;;;27.75;52.58;99210.63;325572;30;1240;-78
2022/07/28 00:32:46;;;;;;;468.92;424.95;;;;;;;27.76;52.55;99203.38;324242;30;1913;-76
2022/07/28 00:32:57;;;;;;;468.05;424.10;;;;;;;27.76;52.02;99203.38;324182;30;2109;-77
2022/07/28 00:33:07;;;;;;;464.80;420.77;;;;;;;27.78;52.17;99207.56;323157;30;1232;-78
2022/07/28 00:33:17;;;;;;;467.37;423.23;;;;;;;27.79;52.28;99203.03;327874;30;1683;-78
2022/07/28 00:33:28;;;;;;;469.45;425.48;;;;;;;27.80;52.24;99204.69;328227;30;1259;-77
2022/07/28 00:33:38;;;;;;;470.30;426.43;;;;;;;27.82;52.35;99202.66;325648;30;1161;-77
2022/07/28 00:33:49;;;;;;;464.38;420.80;;;;;;;27.84;52.07;99206.00;325338;30;1285;-78
2022/07/28 00:33:59;;;;;;;464.07;420.50;;;;;;;27.84;52.18;99211.38;326747;30;1292;-78
2022/07/28 00:34:10;;;;;;;461.27;417.73;;;;;;;27.85;51.67;99212.22;322838;30;1967;-77
2022/07/28 00:34:21;;;;;;;462.08;418.38;;;;;;;27.81;51.47;99206.38;317392;31;854;-77
2022/07/28 00:34:31;;;;;;;467.70;423.45;;;;;;;27.81;51.13;99215.28;319307;30;2239;-77
2022/07/28 00:34:42;;;;;;;467.27;422.83;;;;;;;27.81;51.56;99211.75;317712;30;2307;-77
2022/07/28 00:34:52;;;;;;;469.50;425.10;;;;;;;27.79;51.31;99216.47;319656;30;1384;-78
2022/07/28 00:35:03;;;;;;;467.67;423.42;;;;;;;27.81;51.52;99217.13;320840;30;2301;-76
2022/07/28 00:35:14;;;;;;;472.27;427.87;;;;;;;27.78;51.22;99221.00;320485;30;2117;-76
2022/07/28 00:35:24;;;;;;;471.17;426.63;;;;;;;27.79;51.37;99211.09;317617;31;1310;-77
2022/07/28 00:35:35;;;;;;;471.40;427.07;;;;;;;27.80;51.62;99221.66;318432;31;1076;-78
2022/07/28 00:35:45;;;;;;;471.45;427.52;;;;;;;27.79;51.55;99220.00;315499;31;1308;-78
2022/07/28 00:35:55;;;;;;;473.30;429.47;;;;;;;27.80;51.31;99215.44;316107;31;1176;-78
2022/07/28 00:36:07;;;;;;;471.73;428.17;;;;;;;27.79;51.09;99219.16;315083;31;1377;-79
2022/07/28 00:36:17;;;;;;;469.75;425.95;;;;;;;27.78;50.84;99218.31;316534;31;2046;-77
2022/07/28 00:36:28;;;;;;;471.08;427.00;;;;;;;27.78;51.12;99210.25;317289;30;2774;-77
2022/07/28 00:36:38;;;;;;;469.73;425.43;;;;;;;27.79;50.83;99213.78;316202;31;1275;-77
2022/07/28 00:36:49;;;;;;;472.08;427.85;;;;;;;27.78;50.90;99215.63;312196;31;2838;-78
2022/07/28 00:36:59;;;;;;;472.63;428.50;;;;;;;27.76;50.84;99214.97;311360;31;3100;-77
2022/07/28 00:37:10;;;;;;;474.93;430.73;;;;;;;27.76;50.60;99214.16;312572;31;1316;-77
2022/07/28 00:37:20;;;;;;;475.85;431.60;;;;;;;27.75;50.45;99212.47;309976;31;1418;-78
2022/07/28 00:37:30;;;;;;;481.20;436.80;;;;;;;27.72;50.97;99212.88;310732;31;2888;-77
2022/07/28 00:37:41;;;;;;;479.10;434.88;;;;;;;27.72;50.83;99212.88;306618;31;2641;-77
2022/07/28 00:37:51;;;;;;;475.93;431.97;;;;;;;27.71;50.92;99220.09;305461;32;829;-78
2022/07/28 00:38:02;;;;;;;467.42;423.92;;;;;;;27.71;50.98;99216.56;308759;31;1390;-78
2022/07/28 00:38:12;;;;;;;472.10;428.27;;;;;;;27.71;50.77;99220.09;308783;31;2145;-77
2022/07/28 00:38:22;;;;;;;479.13;434.77;;;;;;;27.69;50.68;99213.22;307262;32;1315;-77
2022/07/28 00:38:33;;;;;;;484.67;439.70;;;;;;;27.71;51.22;99211.19;305307;32;2697;-77
2022/07/28 00:38:44;;;;;;;483.42;438.77;;;;;;;27.71;51.23;99213.88;305946;31;3689;-78
2022/07/28 00:38:54;;;;;;;486.27;441.53;;;;;;;27.70;51.17;99214.91;307333;32;1317;-78
2022/07/28 00:39:04;;;;;;;484.25;439.77;;;;;;;27.71;50.83;99216.56;302039;32;5278;-79
2022/07/28 00:39:15;;;;;;;483.23;438.60;;;;;;;27.68;51.09;99212.41;299924;32;4555;-78
2022/07/28 00:39:25;;;;;;;473.00;428.73;;;;;;;27.67;51.00;99215.25;297276;32;4300;-78
2022/07/28 00:39:36;;;;;;;474.88;430.60;;;;;;;27.67;50.92;99212.56;301040;32;1355;-78
2022/07/28 00:39:46;;;;;;;476.67;432.57;;;;;;;27.67;51.02;99209.88;298810;32;3988;-78
2022/07/28 00:39:56;;;;;;;483.42;439.15;;;;;;;27.68;51.18;99209.69;296376;33;3665;-78
2022/07/28 00:40:08;;;;;;;484.37;440.00;;;;;;;27.70;51.15;99220.28;297984;33;932;-78
2022/07/28 00:40:18;;;;;;;487.10;442.50;;;;;;;27.69;50.95;99213.22;299829;32;2574;-78
2022/07/28 00:41:10;;;;;;;470.80;426.90;;;;;;;27.70;51.21;99218.44;290269;33;6064;-78
2022/07/28 00:41:21;;;;;;;479.23;435.30;;;;;;;27.69;51.16;99213.22;284641;34;1479;-77
2022/07/28 00:41:32;;;;;;;484.73;440.58;;;;;;;27.69;51.29;99211.38;281659;34;6521;-77
2022/07/28 00:41:42;;;;;;;483.45;439.08;;;;;;;27.69;51.36;99213.22;282173;34;6669;-77
2022/07/28 00:41:53;;;;;;;485.40;441.13;;;;;;;27.69;51.42;99218.59;283504;34;1331;-77
2022/07/28 00:42:03;;;;;;;481.35;437.13;;;;;;;27.69;50.90;99210.53;278041;35;5665;-77
2022/07/28 00:42:20;;;;;;;480.57;436.20;;;;;;;27.69;51.07;99215.91;277318;35;6085;-77
2022/07/28 00:42:30;;;;;;;487.85;443.13;;;;;;;27.70;51.30;99212.22;278155;35;3873;-77
2022/07/28 00:42:41;;;;;;;492.33;447.57;;;;;;;27.69;51.06;99214.06;276151;35;4421;-77
2022/07/28 00:42:51;;;;;;;492.67;447.67;;;;;;;27.68;51.30;99212.41;278104;35;1317;-77
2022/07/28 00:43:01;;;;;;;494.25;449.30;;;;;;;27.69;50.87;99214.06;274037;35;7152;-77
2022/07/28 00:43:12;;;;;;;497.17;452.10;;;;;;;27.68;51.22;99216.94;272961;35;8575;-77
2022/07/28 00:43:23;;;;;;;495.65;450.70;;;;;;;27.66;51.39;99211.75;273830;36;1361;-77
2022/07/28 00:45:07;;;;;;;414.48;368.39;;;;;;;27.69;50.99;99213.22;2501646;27;20566;-79
2022/07/28 00:45:18;;;;;;;458.07;415.10;;;;;;;27.68;50.76;99214.25;353323;27;1488;-78
2022/07/28 00:45:28;;;;;;;457.50;414.42;;;;;;;27.67;50.96;99207.19;351277;28;1326;-78
2022/07/28 00:45:39;;;;;;;468.33;424.90;;;;;;;27.67;50.97;99226.84;347460;28;1240;-77
2022/07/28 00:45:49;;;;;;;479.40;435.48;;;;;;;27.66;51.00;99224.34;348129;28;1236;-77
2022/07/28 00:45:59;;;;;;;488.17;443.80;;;;;;;27.66;51.02;99218.97;347425;28;1385;-77
2022/07/28 00:46:11;;;;;;;482.85;438.60;;;;;;;27.66;51.02;99219.81;347334;28;1232;-77
2022/07/28 00:46:21;;;;;;;481.52;437.45;;;;;;;27.66;50.93;99208.22;348912;28;1302;-78
2022/07/28 00:46:32;;;;;;;489.30;445.17;;;;;;;27.64;51.26;99211.09;349175;28;1409;-78
2022/07/28 00:46:42;;;;;;;494.55;450.17;;;;;;;27.69;51.26;99213.22;349208;28;936;-77
2022/07/28 00:46:53;;;;;;;494.40;450.00;;;;;;;27.68;50.77;99211.56;350201;28;791;-78
2022/07/28 00:47:03;;;;;;;487.17;443.02;;;;;;;27.67;50.67;99209.88;351494;28;1337;-77
2022/07/28 00:47:13;;;;;;;485.70;441.63;;;;;;;27.66;51.09;99214.44;348800;28;1053;-77
2022/07/28 00:47:24;;;;;;;485.23;441.08;;;;;;;27.65;51.51;99206.53;348601;28;1218;-78
2022/07/28 00:47:34;;;;;;;489.10;444.73;;;;;;;27.65;51.02;99222.69;349006;28;889;-77
2022/07/28 00:47:45;;;;;;;487.88;443.65;;;;;;;27.64;51.52;99221.00;348752;28;1479;-78
2022/07/28 00:47:55;;;;;;;491.93;447.70;;;;;;;27.63;51.26;99219.34;347162;28;1246;-78
2022/07/28 00:48:06;;;;;;;492.20;447.87;;;;;;;27.63;51.47;99219.34;346165;28;979;-77
2022/07/28 00:48:16;;;;;;;491.73;447.35;;;;;;;27.60;51.67;99212.47;344795;28;915;-77
2022/07/28 00:48:26;;;;;;;487.87;443.93;;;;;;;27.59;51.50;99218.84;344624;28;1183;-78
2022/07/28 00:48:38;;;;;;;489.95;445.98;;;;;;;27.58;51.23;99217.16;344607;28;1248;-78
2022/07/28 00:48:52;;;;;;;490.63;446.48;;;;;;;27.59;51.35;99223.41;346048;28;1303;-78
2022/07/28 00:49:02;;;;;;;492.63;448.13;;;;;;;27.59;50.97;99218.03;345905;28;1366;-78
2022/07/28 00:49:13;;;;;;;487.25;442.75;;;;;;;27.58;51.59;99217.16;345861;28;1228;-77
2022/07/28 00:49:24;;;;;;;484.60;440.13;;;;;;;27.59;51.37;99220.72;343234;28;1378;-77
2022/07/28 00:49:34;;;;;;;483.97;439.60;;;;;;;27.60;51.55;99222.38;344549;28;1386;-77
2022/07/28 00:49:45;;;;;;;486.77;442.60;;;;;;;27.60;51.41;99211.63;346358;28;1366;-77
2022/07/28 00:49:55;;;;;;;486.83;442.83;;;;;;;27.58;51.31;99216.31;344738;28;1388;-77
2022/07/28 00:50:06;;;;;;;485.33;441.48;;;;;;;27.59;51.42;99220.72;345946;28;817;-77
2022/07/28 00:50:18;;;;;;;485.77;441.63;;;;;;;27.58;51.00;99221.69;346111;28;1337;-77
2022/07/28 00:50:29;;;;;;;486.10;441.75;;;;;;;27.57;51.43;99220.03;344940;28;1382;-77
2022/07/28 00:50:39;;;;;;;493.50;448.77;;;;;;;27.59;51.09;99220.72;344555;28;1208;-78
2022/07/28 00:50:50;;;;;;;494.95;450.35;;;;;;;27.59;51.31;99218.03;345809;28;910;-78
2022/07/28 00:51:00;;;;;;;498.13;453.33;;;;;;;27.59;51.27;99226.09;343729;28;1338;-77
2022/07/28 00:51:11;;;;;;;494.00;449.17;;;;;;;27.57;50.94;99220.03;343252;28;1333;-77
2022/07/28 00:51:23;;;;;;;495.67;450.73;;;;;;;27.56;51.57;99223.72;343251;28;1194;-77
2022/07/28 00:51:33;;;;;;;494.02;449.35;;;;;;;27.56;51.32;99219.19;344118;28;1323;-77
2022/07/28 00:51:44;;;;;;;495.65;451.25;;;;;;;27.57;51.11;99225.41;344930;28;1263;-77
2022/07/28 00:51:54;;;;;;;499.10;454.60;;;;;;;27.55;51.68;99224.75;343868;28;1344;-77
2022/07/28 00:52:05;;;;;;;494.92;450.70;;;;;;;27.54;51.46;99225.75;344536;28;1216;-77
2022/07/28 00:52:16;;;;;;;489.15;445.10;;;;;;;27.54;51.06;99220.38;344527;28;1204;-77
2022/07/28 00:52:27;;;;;;;485.63;441.73;;;;;;;27.53;51.65;99224.91;344632;28;1312;-77
2022/07/28 00:52:37;;;;;;;483.45;439.65;;;;;;;27.49;51.38;99219.06;340760;29;968;-78
2022/07/28 00:52:48;;;;;;;489.33;445.27;;;;;;;27.53;51.62;99230.31;340208;28;1156;-77